Time;durP1;ratioP1;P1;durP2;ratioP2;P2;SDS_P1;SDS_P2;PMS_P1;PMS_P2;Temp;Humidity;BMP_temperature;BMP_pressure;BME280_temperature;BME280_humidity;BME280_pressure;Samples;Min_cycle;Max_cycle;Signal;HPM_P1;HPM_P2
2022/02/20 00:00:34;;;;;;;6.65;0.70;;;;;;;8.03;65.40;101107.91;4758076;29;20089;-57
2022/02/20 00:02:59;;;;;;;3.33;0.70;;;;;;;8.06;65.30;101118.34;4744702;29;20395;-54
2022/02/20 00:05:24;;;;;;;6.32;1.00;;;;;;;8.12;65.17;101126.31;4760242;29;20311;-52
2022/02/20 00:07:51;;;;;;;8.30;0.60;;;;;;;8.12;64.75;101125.44;4755380;29;20538;-54
2022/02/20 00:10:16;;;;;;;2.97;0.60;;;;;;;8.13;64.97;101129.78;4758361;29;20047;-52
2022/02/20 00:12:42;;;;;;;5.78;0.63;;;;;;;8.15;64.74;101139.41;4768173;29;20050;-55
2022/02/20 00:15:07;;;;;;;7.95;1.00;;;;;;;8.02;65.20;101152.00;4748558;29;20059;-54
2022/02/20 00:17:33;;;;;;;8.23;0.90;;;;;;;8.10;64.85;101153.97;4748672;29;20577;-54
2022/02/20 00:19:58;;;;;;;4.85;0.70;;;;;;;8.17;64.60;101148.97;4753217;29;20557;-53
2022/02/20 00:22:23;;;;;;;4.38;0.70;;;;;;;8.19;64.56;101155.94;4757169;29;20051;-53
2022/02/20 00:24:49;;;;;;;7.80;0.80;;;;;;;8.21;65.11;101169.84;4752814;29;20059;-50
2022/02/20 00:27:14;;;;;;;5.28;0.60;;;;;;;8.22;64.72;101166.41;4753167;29;20557;-54
2022/02/20 00:29:39;;;;;;;4.55;0.63;;;;;;;8.20;64.60;101177.59;4760257;29;20051;-51
2022/02/20 00:32:05;;;;;;;7.28;1.00;;;;;;;8.13;65.08;101174.81;4753789;29;20110;-53
2022/02/20 00:34:30;;;;;;;3.88;0.60;;;;;;;8.10;64.17;101173.88;4757230;29;20055;-54
2022/02/20 00:36:56;;;;;;;3.80;0.50;;;;;;;8.22;64.01;101183.72;4738993;29;20312;-54
2022/02/20 00:39:21;;;;;;;6.00;0.60;;;;;;;8.17;63.96;101182.72;4753871;29;20125;-51
2022/02/20 00:41:47;;;;;;;5.78;0.77;;;;;;;8.11;64.42;101186.03;4759216;29;20046;-55
2022/02/20 00:44:12;;;;;;;3.78;0.50;;;;;;;8.20;63.36;101177.59;4755904;29;20071;-54
2022/02/20 00:46:37;;;;;;;2.72;0.63;;;;;;;8.26;63.49;101182.97;4752724;29;20140;-51
2022/02/20 00:49:03;;;;;;;4.78;0.60;;;;;;;8.18;63.83;101193.13;4749449;29;20035;-54
2022/02/20 00:51:28;;;;;;;5.30;0.80;;;;;;;8.13;63.67;101180.03;4756811;29;20555;-52
2022/02/20 00:53:53;;;;;;;4.47;0.60;;;;;;;8.18;63.44;101181.84;4755079;29;20051;-54
2022/02/20 00:56:19;;;;;;;4.70;0.68;;;;;;;8.23;63.38;101181.19;4756244;29;20043;-54
2022/02/20 00:58:46;;;;;;;4.78;0.70;;;;;;;8.21;63.58;101187.16;4740665;29;20053;-54
2022/02/20 01:01:11;;;;;;;5.03;0.70;;;;;;;8.19;63.47;101181.03;4748504;29;20054;-53
2022/02/20 01:03:36;;;;;;;3.47;0.50;;;;;;;8.28;63.04;101183.88;4754487;29;20058;-51
2022/02/20 01:06:02;;;;;;;3.33;0.65;;;;;;;8.29;63.12;101172.66;4753600;29;20060;-56
2022/02/20 01:08:28;;;;;;;5.40;0.70;;;;;;;8.30;63.01;101172.72;4755467;29;20412;-56
2022/02/20 01:10:53;;;;;;;5.45;0.63;;;;;;;8.34;62.53;101176.28;4749067;29;20481;-51
2022/02/20 01:13:18;;;;;;;4.68;0.60;;;;;;;8.30;63.49;101187.38;4755158;29;20689;-54
2022/02/20 01:15:44;;;;;;;5.72;0.70;;;;;;;8.31;63.40;101192.66;4754800;29;20080;-52
2022/02/20 01:18:09;;;;;;;4.43;0.63;;;;;;;8.38;63.27;101186.81;4753536;29;20447;-54
2022/02/20 01:20:35;;;;;;;6.90;0.90;;;;;;;8.36;63.35;101185.00;4754599;29;20416;-52
2022/02/20 01:23:00;;;;;;;5.25;0.70;;;;;;;8.39;63.08;101192.88;4751796;29;20150;-54
2022/02/20 01:25:26;;;;;;;5.60;0.80;;;;;;;8.34;63.01;101195.38;4750407;29;20034;-53
2022/02/20 01:27:51;;;;;;;5.57;0.60;;;;;;;8.38;62.22;101197.19;4754800;29;20058;-52
2022/02/20 01:30:16;;;;;;;5.22;0.93;;;;;;;8.42;61.93;101201.63;4755017;29;20523;-54
2022/02/20 01:32:42;;;;;;;6.30;0.82;;;;;;;8.36;62.79;101192.78;4755707;29;20086;-55
2022/02/20 01:35:08;;;;;;;3.22;0.55;;;;;;;8.35;63.05;101193.66;4747628;29;20058;-55
2022/02/20 01:37:33;;;;;;;6.63;1.02;;;;;;;8.32;62.69;101189.25;4751346;29;20050;-52
2022/02/20 01:39:59;;;;;;;6.75;0.73;;;;;;;8.36;62.87;101182.38;4745126;29;20043;-56
2022/02/20 01:42:24;;;;;;;3.97;0.75;;;;;;;8.38;62.77;101178.13;4755649;29;20074;-55
2022/02/20 01:44:49;;;;;;;5.53;0.60;;;;;;;8.42;62.37;101166.97;4750958;29;20063;-53
2022/02/20 01:47:16;;;;;;;3.33;0.70;;;;;;;8.33;62.71;101167.63;4750201;29;20203;-52
2022/02/20 01:49:43;;;;;;;6.03;0.80;;;;;;;8.36;62.52;101167.69;4752961;29;20060;-55
2022/02/20 01:52:08;;;;;;;3.65;0.68;;;;;;;8.41;62.68;101170.44;4749490;29;20503;-54
2022/02/20 01:54:34;;;;;;;3.92;0.60;;;;;;;8.38;62.54;101166.03;4753418;29;20124;-55
2022/02/20 01:56:59;;;;;;;7.85;1.00;;;;;;;8.33;62.82;101177.13;4754189;29;20063;-52
2022/02/20 01:59:25;;;;;;;5.15;0.80;;;;;;;8.22;62.81;101169.03;4753436;29;20059;-53
2022/02/20 02:01:55;;;;;;;4.45;0.80;;;;;;;8.20;62.93;101173.28;4752266;29;20047;-54
2022/02/20 02:04:22;;;;;;;4.50;0.60;;;;;;;8.09;62.98;101174.72;4755584;29;20051;-53
2022/02/20 02:06:48;;;;;;;4.93;0.80;;;;;;;8.02;63.03;101173.66;4750151;29;20047;-52
2022/02/20 02:09:15;;;;;;;6.57;0.80;;;;;;;8.01;63.20;101163.22;4738177;29;20587;-54
2022/02/20 02:11:41;;;;;;;6.28;0.80;;;;;;;7.82;63.50;101160.94;4748482;29;20051;-54
2022/02/20 02:14:07;;;;;;;5.68;0.80;;;;;;;7.80;63.50;101160.91;4756019;29;20128;-54
2022/02/20 02:16:33;;;;;;;2.60;0.70;;;;;;;7.78;63.82;101159.09;4753075;29;20051;-54
2022/02/20 02:18:59;;;;;;;5.80;0.80;;;;;;;7.79;64.35;101155.66;4747786;29;20043;-54
2022/02/20 02:21:24;;;;;;;8.68;0.80;;;;;;;7.83;63.71;101148.00;4755532;29;20058;-51
2022/02/20 02:23:49;;;;;;;5.22;0.70;;;;;;;7.79;64.16;101158.25;4750335;29;20059;-53
2022/02/20 02:26:15;;;;;;;6.28;0.60;;;;;;;7.76;64.51;101159.03;4754692;29;20050;-52
2022/02/20 02:28:41;;;;;;;7.90;1.00;;;;;;;7.77;64.43;101153.00;4750798;29;20493;-54
2022/02/20 02:31:09;;;;;;;5.95;0.90;;;;;;;7.78;64.18;101149.59;4743691;29;20054;-54
2022/02/20 02:33:35;;;;;;;2.63;0.70;;;;;;;7.68;64.85;101135.44;4759040;29;20031;-51
2022/02/20 02:36:03;;;;;;;6.53;1.73;;;;;;;7.65;64.79;101137.97;4751999;29;20471;-53
2022/02/20 02:38:29;;;;;;;4.80;0.90;;;;;;;7.64;64.69;101131.00;4748041;29;20522;-54
2022/02/20 02:41:06;;;;;;;6.60;1.17;;;;;;;7.74;64.28;101124.41;4742671;29;20745;-54
2022/02/20 02:43:36;;;;;;;3.90;1.30;;;;;;;7.70;64.26;101127.72;4757133;29;20504;-52
2022/02/20 02:46:03;;;;;;;4.13;1.00;;;;;;;7.65;64.17;101122.41;4742014;29;20389;-53
2022/02/20 02:48:30;;;;;;;7.15;1.35;;;;;;;7.62;64.19;101121.44;4753986;29;20047;-55
2022/02/20 02:50:56;;;;;;;7.50;1.40;;;;;;;7.55;64.65;101111.72;4741170;29;20054;-55
2022/02/20 02:53:21;;;;;;;5.20;1.13;;;;;;;7.52;64.92;101125.47;4748839;29;20071;-54
2022/02/20 02:55:49;;;;;;;6.82;1.40;;;;;;;7.49;65.40;101124.50;4752105;29;20540;-53
2022/02/20 02:58:18;;;;;;;5.80;1.60;;;;;;;7.48;65.49;101125.34;4754628;29;20082;-51
2022/02/20 03:00:44;;;;;;;3.92;1.40;;;;;;;7.46;65.54;101125.28;4756028;29;20048;-54
2022/02/20 03:03:09;;;;;;;6.68;1.80;;;;;;;7.61;65.57;101117.09;4764388;29;21305;-51
2022/02/20 03:05:35;;;;;;;7.75;2.03;;;;;;;7.60;65.53;101120.50;4743303;29;20679;-51
2022/02/20 03:08:00;;;;;;;8.50;2.13;;;;;;;7.57;65.54;101118.69;4752874;29;20535;-51
2022/02/20 03:10:25;;;;;;;5.32;2.20;;;;;;;7.48;65.63;101107.19;4751113;29;20039;-52
2022/02/20 03:12:51;;;;;;;6.10;2.33;;;;;;;7.50;65.62;101108.97;4750711;29;20843;-54
2022/02/20 03:15:16;;;;;;;8.10;2.50;;;;;;;7.44;65.94;101094.97;4748885;29;20044;-53
2022/02/20 03:17:42;;;;;;;8.65;3.08;;;;;;;7.38;66.60;101087.00;4749254;29;20180;-54
2022/02/20 03:20:08;;;;;;;9.80;3.65;;;;;;;7.38;66.69;101081.81;4754554;29;20477;-51
2022/02/20 03:22:33;;;;;;;13.45;4.13;;;;;;;7.42;66.56;101081.94;4751715;29;20496;-52
2022/02/20 03:24:59;;;;;;;18.17;4.88;;;;;;;7.33;66.51;101076.47;4746833;29;20112;-52
2022/02/20 03:27:24;;;;;;;12.07;5.13;;;;;;;7.38;66.34;101069.69;4751213;29;20342;-54
2022/02/20 03:29:49;;;;;;;12.52;5.80;;;;;;;7.42;66.13;101071.56;4752230;29;20058;-54
2022/02/20 03:32:15;;;;;;;17.60;6.30;;;;;;;7.35;66.91;101072.22;4754711;29;20062;-55
2022/02/20 03:34:42;;;;;;;17.38;5.70;;;;;;;7.45;66.64;101071.63;4756056;29;20059;-54
2022/02/20 03:37:07;;;;;;;15.63;6.50;;;;;;;7.46;66.43;101069.94;4752617;29;20058;-55
2022/02/20 03:39:33;;;;;;;17.45;6.65;;;;;;;7.40;66.72;101056.78;4754043;29;20054;-53
2022/02/20 03:41:58;;;;;;;13.15;6.43;;;;;;;7.45;66.90;101060.38;4751028;29;20589;-52
2022/02/20 03:44:23;;;;;;;14.02;5.88;;;;;;;7.48;67.26;101051.00;4751575;29;20111;-54
2022/02/20 03:46:49;;;;;;;11.65;5.90;;;;;;;7.51;67.18;101050.19;4753638;29;20051;-53
2022/02/20 03:49:14;;;;;;;10.52;5.80;;;;;;;7.44;67.38;101046.53;4748067;29;20115;-54
2022/02/20 03:51:39;;;;;;;15.68;6.47;;;;;;;7.48;67.49;101044.91;4751001;29;20515;-52
2022/02/20 03:54:05;;;;;;;16.38;7.47;;;;;;;7.42;68.19;101044.75;4754337;29;20505;-55
2022/02/20 03:56:30;;;;;;;16.02;7.88;;;;;;;7.46;68.12;101039.69;4756405;29;20072;-53
2022/02/20 03:58:56;;;;;;;14.15;8.18;;;;;;;7.50;68.08;101035.47;4748013;29;20051;-53
2022/02/20 04:01:21;;;;;;;18.25;8.20;;;;;;;7.54;67.81;101025.22;4753071;29;20154;-56
2022/02/20 04:03:46;;;;;;;16.02;7.88;;;;;;;7.51;67.97;101029.44;4756649;29;20051;-55
2022/02/20 04:06:12;;;;;;;16.48;8.45;;;;;;;7.54;68.26;101011.38;4749548;29;20124;-56
2022/02/20 04:08:37;;;;;;;19.50;8.75;;;;;;;7.43;69.01;101010.19;4763203;29;20081;-54
2022/02/20 04:11:02;;;;;;;16.48;8.63;;;;;;;7.50;68.79;101004.34;4733103;29;20150;-55
2022/02/20 04:13:28;;;;;;;16.55;8.65;;;;;;;7.48;68.97;101000.81;4757187;29;20051;-53
2022/02/20 04:15:53;;;;;;;20.70;8.73;;;;;;;7.44;69.47;100991.22;4756288;29;20254;-51
2022/02/20 04:18:18;;;;;;;15.30;8.10;;;;;;;7.43;69.40;100986.84;4757476;29;20422;-53
2022/02/20 04:20:44;;;;;;;15.15;8.32;;;;;;;7.45;69.55;100980.84;4756020;29;20039;-53
2022/02/20 04:23:09;;;;;;;14.88;8.23;;;;;;;7.39;69.75;100972.91;4751325;29;20094;-54
2022/02/20 04:25:34;;;;;;;15.88;8.57;;;;;;;7.38;69.93;100955.56;4759454;29;20531;-51
2022/02/20 04:28:00;;;;;;;19.15;8.65;;;;;;;7.45;70.07;100946.25;4749933;29;20424;-54
2022/02/20 04:30:25;;;;;;;17.70;9.25;;;;;;;7.43;70.35;100942.75;4756293;29;20071;-54
2022/02/20 04:32:51;;;;;;;20.38;9.10;;;;;;;7.36;70.66;100940.84;4746128;29;20071;-57
2022/02/20 04:35:16;;;;;;;19.48;8.57;;;;;;;7.44;70.60;100937.59;4756677;29;20144;-51
2022/02/20 04:37:42;;;;;;;19.17;8.82;;;;;;;7.47;70.83;100935.09;4755462;29;20082;-54
2022/02/20 04:40:08;;;;;;;19.73;8.57;;;;;;;7.46;70.99;100928.13;4756808;29;20048;-50
2022/02/20 04:42:33;;;;;;;17.70;8.48;;;;;;;7.49;71.37;100925.66;4747740;29;20069;-54
2022/02/20 04:44:58;;;;;;;18.35;8.45;;;;;;;7.50;71.25;100918.75;4747522;29;20305;-53
2022/02/20 04:47:24;;;;;;;15.23;7.85;;;;;;;7.50;71.40;100898.00;4745238;29;20423;-53
2022/02/20 04:49:49;;;;;;;17.15;8.02;;;;;;;7.52;71.67;100897.19;4748466;29;20352;-50
2022/02/20 04:52:14;;;;;;;18.23;7.25;;;;;;;7.57;71.79;100874.81;4757760;29;20070;-53
2022/02/20 04:54:40;;;;;;;19.88;7.97;;;;;;;7.47;71.98;100857.28;4758456;29;20089;-51
2022/02/20 04:57:06;;;;;;;19.08;7.93;;;;;;;7.60;71.96;100845.50;4753232;29;20248;-53
2022/02/20 04:59:32;;;;;;;17.60;8.13;;;;;;;7.37;72.73;100841.44;4751217;29;20047;-55
2022/02/20 05:01:57;;;;;;;17.10;8.13;;;;;;;7.57;72.57;100840.22;4742996;29;20361;-53
2022/02/20 05:04:23;;;;;;;18.83;8.07;;;;;;;7.69;72.57;100833.59;4754859;29;20466;-52
2022/02/20 05:06:48;;;;;;;20.05;8.30;;;;;;;7.77;72.27;100825.13;4752459;29;20107;-53
2022/02/20 05:09:13;;;;;;;22.90;8.27;;;;;;;7.80;72.41;100818.31;4752068;29;20055;-51
2022/02/20 05:11:39;;;;;;;21.85;8.35;;;;;;;7.84;72.47;100806.28;4750064;29;20685;-54
2022/02/20 05:14:04;;;;;;;26.40;8.82;;;;;;;7.81;72.90;100790.66;4755945;29;20043;-55
2022/02/20 05:16:31;;;;;;;23.02;8.70;;;;;;;7.89;73.11;100791.69;4770743;29;20047;-54
2022/02/20 05:18:56;;;;;;;26.65;9.25;;;;;;;7.91;73.08;100783.09;4744334;29;20050;-53
2022/02/20 05:21:22;;;;;;;24.25;9.27;;;;;;;7.90;73.44;100776.16;4755550;29;20047;-52
2022/02/20 05:23:47;;;;;;;30.08;9.02;;;;;;;8.05;73.41;100783.41;4757112;29;20047;-52
2022/02/20 05:26:13;;;;;;;23.73;9.55;;;;;;;8.11;73.24;100786.13;4747232;29;20056;-53
2022/02/20 05:28:41;;;;;;;25.30;9.38;;;;;;;8.13;73.49;100789.63;4755740;29;20112;-54
2022/02/20 05:31:07;;;;;;;23.05;9.75;;;;;;;8.06;73.98;100787.72;4740972;29;20254;-55
2022/02/20 05:33:32;;;;;;;24.83;10.27;;;;;;;8.14;74.07;100776.69;4754442;29;20527;-52
2022/02/20 05:35:58;;;;;;;26.80;10.38;;;;;;;8.25;73.44;100770.84;4752687;29;20779;-51
2022/02/20 05:38:23;;;;;;;29.35;10.75;;;;;;;8.18;74.22;100768.94;4753876;29;20062;-55
2022/02/20 05:40:50;;;;;;;28.08;11.02;;;;;;;8.34;74.59;100766.75;4750457;29;20052;-51
2022/02/20 05:43:15;;;;;;;30.52;11.45;;;;;;;8.38;74.36;100759.88;4748429;29;20058;-55
2022/02/20 05:45:41;;;;;;;27.75;11.25;;;;;;;8.49;74.37;100761.84;4745649;29;20047;-53
2022/02/20 05:48:06;;;;;;;31.27;12.20;;;;;;;8.56;74.20;100749.88;4751362;29;20059;-55
2022/02/20 05:50:32;;;;;;;26.58;11.88;;;;;;;8.60;74.63;100749.06;4753066;29;20047;-55
2022/02/20 05:52:57;;;;;;;36.70;12.63;;;;;;;8.73;74.81;100735.47;4745203;29;20119;-55
2022/02/20 05:55:24;;;;;;;31.38;11.60;;;;;;;8.83;75.00;100731.31;4755140;29;20067;-55
2022/02/20 05:57:54;;;;;;;28.33;10.80;;;;;;;8.98;74.97;100725.50;4751963;29;20210;-57
2022/02/20 06:00:21;;;;;;;37.00;11.52;;;;;;;9.09;75.37;100732.63;4753416;29;20471;-56
2022/02/20 06:02:47;;;;;;;28.20;11.23;;;;;;;9.24;74.92;100721.63;4749486;29;20580;-52
2022/02/20 06:05:13;;;;;;;27.60;10.70;;;;;;;9.32;75.20;100709.63;4752292;29;20047;-55
2022/02/20 06:07:38;;;;;;;26.15;9.80;;;;;;;9.42;74.94;100714.09;4751500;29;20051;-56
2022/02/20 06:10:05;;;;;;;25.15;9.30;;;;;;;9.45;75.20;100710.69;4751559;29;20054;-54
2022/02/20 06:12:36;;;;;;;23.58;8.40;;;;;;;9.52;74.95;100702.97;4751922;29;20249;-55
2022/02/20 06:15:03;;;;;;;22.77;7.45;;;;;;;9.61;75.83;100712.66;4740609;29;20523;-56
2022/02/20 06:17:29;;;;;;;20.48;6.90;;;;;;;9.68;75.99;100704.97;4757433;29;20082;-55
2022/02/20 06:19:54;;;;;;;18.35;6.35;;;;;;;9.70;76.00;100713.66;4749774;29;20055;-56
2022/02/20 06:22:19;;;;;;;23.17;6.85;;;;;;;9.86;75.53;100709.56;4756914;29;20074;-56
2022/02/20 06:24:47;;;;;;;24.35;6.20;;;;;;;9.89;75.85;100712.19;4755728;29;20070;-55
2022/02/20 06:27:12;;;;;;;22.08;5.75;;;;;;;9.99;75.56;100695.84;4750540;29;20138;-54
2022/02/20 06:29:38;;;;;;;26.05;5.88;;;;;;;10.08;76.04;100697.66;4746210;29;20127;-56
2022/02/20 06:32:06;;;;;;;27.55;5.85;;;;;;;10.13;75.96;100688.19;4748779;29;20108;-56
2022/02/20 06:34:31;;;;;;;31.98;5.40;;;;;;;10.24;76.27;100693.56;4758012;29;20066;-54
2022/02/20 06:36:57;;;;;;;32.42;4.88;;;;;;;10.24;77.13;100693.56;4748077;29;20047;-54
2022/02/20 06:39:22;;;;;;;35.95;4.93;;;;;;;10.47;76.94;100674.72;4753024;29;20043;-53
2022/02/20 06:41:48;;;;;;;35.90;5.18;;;;;;;10.58;77.00;100661.78;4756296;29;20047;-54
2022/02/20 06:44:13;;;;;;;31.25;4.80;;;;;;;10.72;76.97;100673.25;4752078;29;20043;-54
2022/02/20 06:46:39;;;;;;;37.13;4.78;;;;;;;10.96;76.25;100678.69;4754643;29;20111;-54
2022/02/20 06:49:07;;;;;;;35.70;4.65;;;;;;;10.99;76.59;100678.69;4746878;29;20344;-54
2022/02/20 06:51:33;;;;;;;38.92;4.65;;;;;;;11.03;76.25;100676.13;4743579;29;20047;-55
2022/02/20 06:53:58;;;;;;;39.08;4.28;;;;;;;11.06;76.57;100671.78;4755058;29;20101;-55
2022/02/20 06:56:25;;;;;;;45.33;5.35;;;;;;;11.14;76.32;100679.69;4747554;29;20508;-55
2022/02/20 06:58:50;;;;;;;38.47;4.88;;;;;;;11.08;76.03;100664.00;4752476;29;20140;-54
2022/02/20 07:01:24;;;;;;;38.03;4.70;;;;;;;11.24;75.60;100658.88;4748624;29;20589;-55
2022/02/20 07:03:50;;;;;;;39.70;4.73;;;;;;;11.22;75.79;100644.09;4747023;29;20242;-56
2022/02/20 07:06:15;;;;;;;30.20;4.53;;;;;;;11.15;75.71;100634.47;4751877;29;20488;-56
2022/02/20 07:08:40;;;;;;;40.58;4.75;;;;;;;11.23;76.13;100631.03;4748341;29;20052;-55
2022/02/20 07:11:06;;;;;;;33.72;4.47;;;;;;;11.26;76.12;100632.81;4744513;29;20142;-54
2022/02/20 07:13:31;;;;;;;40.15;5.32;;;;;;;11.25;76.03;100637.16;4760849;29;20148;-57
2022/02/20 07:15:57;;;;;;;40.55;4.97;;;;;;;11.31;75.63;100644.16;4760807;29;20047;-55
2022/02/20 07:18:22;;;;;;;40.05;5.03;;;;;;;11.21;76.00;100650.19;4756764;29;20047;-51
2022/02/20 07:20:48;;;;;;;39.95;5.03;;;;;;;11.28;76.22;100650.22;4756342;29;20044;-54
2022/02/20 07:23:14;;;;;;;40.22;5.32;;;;;;;11.32;76.01;100638.06;4749459;29;20059;-53
2022/02/20 07:25:40;;;;;;;43.80;5.20;;;;;;;11.35;75.64;100623.28;4769728;29;20136;-55
2022/02/20 07:28:06;;;;;;;41.60;5.32;;;;;;;11.53;75.32;100635.56;4758238;29;20374;-54
2022/02/20 07:30:32;;;;;;;39.05;4.80;;;;;;;11.49;75.32;100618.16;4757481;29;20062;-53
2022/02/20 07:33:04;;;;;;;38.50;4.90;;;;;;;11.48;75.24;100610.31;4751356;29;20488;-54
2022/02/20 07:35:30;;;;;;;45.00;4.93;;;;;;;11.53;75.14;100609.47;4755460;29;20048;-52
2022/02/20 07:37:56;;;;;;;36.33;5.03;;;;;;;11.37;75.82;100607.66;4757649;29;20062;-53
2022/02/20 07:40:21;;;;;;;43.45;4.80;;;;;;;11.50;75.27;100614.69;4742140;29;20499;-51
2022/02/20 07:42:47;;;;;;;45.28;5.03;;;;;;;11.52;75.40;100612.97;4755019;29;20059;-54
2022/02/20 07:45:12;;;;;;;47.60;5.65;;;;;;;11.50;75.70;100601.63;4748583;29;20130;-55
2022/02/20 07:47:59;;;;;;;42.08;4.90;;;;;;;11.54;75.68;100605.13;4752522;29;20059;-55
2022/02/20 07:50:30;;;;;;;45.15;5.20;;;;;;;11.62;75.08;100622.59;4755223;29;20177;-55
2022/02/20 07:52:57;;;;;;;41.75;5.13;;;;;;;11.59;75.18;100613.84;4747925;29;20049;-53
2022/02/20 07:55:23;;;;;;;45.10;5.50;;;;;;;11.65;74.97;100616.47;4757166;29;20590;-54
2022/02/20 07:57:49;;;;;;;47.08;5.78;;;;;;;11.71;74.77;100627.00;4757516;29;20062;-54
2022/02/20 08:00:17;;;;;;;36.40;5.55;;;;;;;11.56;75.06;100619.94;4749194;29;20079;-54
2022/02/20 08:02:42;;;;;;;43.85;5.43;;;;;;;11.74;74.59;100622.69;4755167;29;20375;-55
2022/02/20 08:05:09;;;;;;;43.33;5.22;;;;;;;11.69;74.64;100626.09;4752173;29;20400;-54
2022/02/20 08:07:34;;;;;;;40.55;4.70;;;;;;;11.81;74.35;100599.19;4750714;29;20063;-51
2022/02/20 08:10:00;;;;;;;40.35;5.10;;;;;;;11.78;74.29;100607.88;4753216;29;20043;-54
2022/02/20 08:12:25;;;;;;;41.92;5.63;;;;;;;11.85;73.95;100612.25;4752127;29;20135;-55
2022/02/20 08:14:50;;;;;;;33.90;5.10;;;;;;;11.73;74.38;100600.03;4753516;29;20039;-53
2022/02/20 08:17:16;;;;;;;36.60;4.75;;;;;;;11.86;73.88;100602.69;4750444;29;20532;-54
2022/02/20 08:19:41;;;;;;;36.05;4.80;;;;;;;11.84;73.60;100610.50;4751559;29;20054;-53
2022/02/20 08:22:07;;;;;;;47.70;5.20;;;;;;;11.85;73.41;100607.03;4751054;29;20043;-55
2022/02/20 08:24:32;;;;;;;31.42;4.45;;;;;;;11.90;73.33;100588.75;4756307;29;20165;-55
2022/02/20 08:26:57;;;;;;;35.83;4.80;;;;;;;11.85;73.16;100604.44;4740430;29;20111;-50
2022/02/20 08:29:23;;;;;;;39.55;5.60;;;;;;;12.02;72.79;100596.66;4754108;29;20178;-54
2022/02/20 08:31:48;;;;;;;37.45;5.47;;;;;;;12.06;72.41;100604.53;4754122;29;20043;-54
2022/02/20 08:34:14;;;;;;;34.75;4.95;;;;;;;12.14;71.83;100589.72;4757202;29;20328;-55
2022/02/20 08:36:41;;;;;;;39.10;5.00;;;;;;;11.98;72.21;100607.97;4754433;29;20039;-54
2022/02/20 08:39:06;;;;;;;36.78;4.57;;;;;;;12.17;71.86;100607.16;4743910;29;20798;-53
2022/02/20 08:41:32;;;;;;;43.78;5.82;;;;;;;12.09;71.88;100617.56;4753530;29;20082;-54
2022/02/20 08:43:57;;;;;;;34.45;4.93;;;;;;;12.24;71.68;100611.53;4756408;29;20589;-56
2022/02/20 08:46:22;;;;;;;34.78;4.95;;;;;;;12.09;71.77;100616.69;4749053;29;20047;-55
2022/02/20 08:48:48;;;;;;;41.58;6.03;;;;;;;12.10;71.93;100623.69;4748154;29;20078;-55
2022/02/20 08:51:15;;;;;;;41.25;4.95;;;;;;;12.26;71.17;100616.78;4746734;29;20445;-50
2022/02/20 08:53:40;;;;;;;43.28;5.50;;;;;;;12.31;71.13;100613.28;4748687;29;20765;-53
2022/02/20 08:56:07;;;;;;;37.22;5.25;;;;;;;12.22;71.42;100600.19;4753651;29;20066;-54
2022/02/20 08:58:33;;;;;;;43.95;5.20;;;;;;;12.33;70.83;100608.91;4750961;29;20055;-53
2022/02/20 09:00:58;;;;;;;36.75;5.38;;;;;;;12.19;71.00;100597.59;4748548;29;20731;-54
2022/02/20 09:03:24;;;;;;;40.85;5.43;;;;;;;12.31;70.95;100612.41;4759628;29;20047;-52
2022/02/20 09:05:49;;;;;;;41.65;5.57;;;;;;;12.45;70.39;100615.91;4750907;29;20055;-54
2022/02/20 09:08:15;;;;;;;47.65;5.97;;;;;;;12.35;70.46;100606.31;4758273;29;20051;-55
2022/02/20 09:10:42;;;;;;;34.67;5.63;;;;;;;12.52;70.08;100604.59;4746701;29;20048;-53
2022/02/20 09:13:08;;;;;;;40.70;5.60;;;;;;;12.42;69.97;100619.41;4744822;29;20164;-57
2022/02/20 09:15:33;;;;;;;39.17;5.60;;;;;;;12.51;69.69;100601.09;4758284;29;20512;-56
2022/02/20 09:17:59;;;;;;;36.30;5.75;;;;;;;12.40;69.79;100596.75;4754255;29;20063;-54
2022/02/20 09:20:25;;;;;;;49.50;6.53;;;;;;;12.37;69.81;100610.69;4752655;29;20043;-54
2022/02/20 09:22:52;;;;;;;43.15;5.80;;;;;;;12.43;69.67;100599.38;4746608;29;20055;-59
2022/02/20 09:25:17;;;;;;;39.20;5.55;;;;;;;12.71;68.65;100579.34;4753858;29;20063;-52
2022/02/20 09:27:42;;;;;;;42.42;5.93;;;;;;;12.60;68.38;100579.34;4750261;29;20047;-53
2022/02/20 09:30:08;;;;;;;43.58;6.10;;;;;;;12.63;68.46;100602.84;4755834;29;20055;-55
2022/02/20 09:32:34;;;;;;;45.10;6.38;;;;;;;12.69;68.24;100595.00;4750232;29;20450;-52
2022/02/20 09:35:00;;;;;;;47.00;6.70;;;;;;;12.79;67.90;100595.91;4745501;29;20491;-54
2022/02/20 09:37:26;;;;;;;48.58;6.40;;;;;;;12.74;67.98;100598.53;4758943;29;20511;-54
2022/02/20 09:39:52;;;;;;;46.00;6.35;;;;;;;12.75;67.97;100591.53;4748568;29;20142;-54
2022/02/20 09:42:18;;;;;;;45.47;5.95;;;;;;;12.72;68.26;100605.50;4754905;29;20555;-55
2022/02/20 09:44:44;;;;;;;44.67;6.97;;;;;;;12.80;67.97;100584.56;4754341;29;20177;-53
2022/02/20 09:47:11;;;;;;;45.50;7.03;;;;;;;12.74;68.28;100587.19;4735906;29;20051;-53
2022/02/20 09:49:37;;;;;;;53.03;6.57;;;;;;;12.63;68.81;100581.94;4750568;29;20449;-51
2022/02/20 09:52:03;;;;;;;43.55;6.55;;;;;;;12.56;68.97;100612.44;4763633;29;20143;-55
2022/02/20 09:54:29;;;;;;;48.20;6.90;;;;;;;12.33;70.00;100581.91;4747590;29;20065;-54
2022/02/20 09:56:54;;;;;;;52.83;7.30;;;;;;;12.55;69.37;100594.16;4741453;29;20591;-50
2022/02/20 09:59:20;;;;;;;50.78;7.03;;;;;;;12.69;69.14;100607.22;4735234;29;20043;-52
2022/02/20 10:02:08;;;;;;;46.85;6.65;;;;;;;12.48;69.95;100608.97;4754662;29;20048;-51
2022/02/20 10:04:38;;;;;;;52.80;6.82;;;;;;;12.24;70.96;100598.47;4752762;29;20054;-53
2022/02/20 10:07:04;;;;;;;46.50;7.05;;;;;;;12.42;70.61;100615.94;4749328;29;20043;-55
2022/02/20 10:09:35;;;;;;;48.22;6.50;;;;;;;12.25;70.93;100615.03;4753175;29;20147;-53
2022/02/20 10:12:01;;;;;;;53.78;7.45;;;;;;;12.10;71.60;100601.03;4755281;29;20305;-55
2022/02/20 10:14:31;;;;;;;50.78;6.63;;;;;;;12.32;71.41;100601.94;4744748;29;20948;-57
2022/02/20 10:17:14;;;;;;;50.92;6.50;;;;;;;12.26;71.24;100598.47;4747134;29;20052;-53
2022/02/20 10:20:04;;;;;;;47.78;6.38;;;;;;;12.15;71.83;100608.88;4764117;29;20162;-55
2022/02/20 10:22:35;;;;;;;48.80;6.47;;;;;;;12.24;71.53;100603.69;4749428;29;20130;-54
2022/02/20 10:25:08;;;;;;;50.65;6.85;;;;;;;12.30;71.48;100601.09;4742582;29;20453;-53
2022/02/20 10:27:35;;;;;;;48.13;6.32;;;;;;;12.30;71.62;100605.44;4750299;29;20062;-55
2022/02/20 10:30:10;;;;;;;56.42;7.15;;;;;;;12.32;71.75;100612.41;4751403;29;20611;-54
2022/02/20 10:32:36;;;;;;;46.88;6.45;;;;;;;12.26;72.05;100598.47;4750945;29;20044;-54
2022/02/20 10:35:13;;;;;;;57.35;7.22;;;;;;;12.11;72.44;100586.22;4742632;29;20046;-54
2022/02/20 10:37:39;;;;;;;59.03;7.75;;;;;;;12.31;72.02;100576.69;4744823;29;20456;-52
2022/02/20 10:40:28;;;;;;;53.83;7.20;;;;;;;12.22;72.21;100588.88;4746088;29;20493;-54
2022/02/20 10:42:56;;;;;;;55.67;6.78;;;;;;;12.36;71.97;100585.41;4735677;29;20457;-55
2022/02/20 10:45:33;;;;;;;55.10;7.15;;;;;;;12.25;72.03;100583.66;4753687;29;20134;-50
2022/02/20 10:47:59;;;;;;;59.45;7.18;;;;;;;12.24;72.32;100571.44;4753610;29;20056;-50
2022/02/20 10:50:27;;;;;;;57.65;7.47;;;;;;;12.32;71.98;100570.56;4751034;29;20058;-52
2022/02/20 10:53:19;;;;;;;52.00;7.30;;;;;;;12.37;71.94;100562.75;4742966;29;20043;-53
2022/02/20 10:55:50;;;;;;;57.55;7.13;;;;;;;12.39;71.73;100561.88;4766267;29;20043;-53
2022/02/20 10:58:19;;;;;;;48.03;6.30;;;;;;;12.22;71.95;100558.38;4751459;29;20051;-54
2022/02/20 11:01:05;;;;;;;49.75;6.80;;;;;;;12.34;71.79;100557.53;4757101;29;20047;-55
2022/02/20 11:03:33;;;;;;;48.13;6.53;;;;;;;12.14;72.30;100547.91;4752474;29;20077;-55
2022/02/20 11:05:59;;;;;;;50.15;6.85;;;;;;;12.44;71.69;100533.16;4752587;29;20047;-54
2022/02/20 11:08:27;;;;;;;48.92;7.00;;;;;;;12.48;71.57;100533.13;4751724;29;20044;-54
2022/02/20 11:10:54;;;;;;;54.95;7.00;;;;;;;12.58;71.30;100534.00;4740805;29;20071;-54
2022/02/20 11:13:20;;;;;;;55.72;6.88;;;;;;;12.38;71.60;100536.59;4751540;29;20412;-55
2022/02/20 11:15:48;;;;;;;49.20;6.72;;;;;;;12.50;70.93;100527.91;4737059;29;20485;-58
2022/02/20 11:18:17;;;;;;;58.42;7.53;;;;;;;12.61;70.50;100526.16;4750102;29;20043;-53
2022/02/20 11:20:45;;;;;;;52.08;6.70;;;;;;;12.62;70.54;100525.31;4765209;29;20104;-54